Pensacola Beach, FL

5:02 PM CST on December 25, 2014 (GMT -0600)
Polynesian Isles | Change Station
CLOSE
Current Station
Personal Weather Station
Location: Gulf Breeze, FL
Elevation: 16 ft
Nearby Weather Stations

Elev 16 ft 30.40 °N, 87.09 °W | Updated 2 minutes ago

Clear
Clear
52.2 °F
Feels Like 52.2 °F
N
1.6
Wind Variable Wind from East
Gusts 2.2 mph

Today
High -- | Low -- °F
--% Chance of Precip.
Yesterday
High -- | Low -- °F
Precip. -- in
6:42 AM 4:54 PM
Waxing Crescent, 20% visible
Pressure 30.24 in
Visibility 10.0 miles
Clouds Clear
Dew Point 43 °F
Humidity 71%
Rainfall 0.00 in
Snow Depth Not available.
UV 0 out of 12
Pollen 3.20 out of 12
Air Quality Not available.
Flu Activity Not available.
METAR KPNS 252253Z 19005KT 10SM CLR 11/04 A3023 RMK AO2 SLP240 T01060039

More Conditions Fewer Conditions

Pressure 30.24 in
Visibility 10.0 miles
Clouds Clear
Dew Point 43 °F
Humidity 71%
Rainfall 0.00 in
Snow Depth Not available.
UV 0 out of 12
Pollen 3.20 out of 12
Air Quality Not available.
Flu Activity Not available.
METAR KPNS 252253Z 19005KT 10SM CLR 11/04 A3023 RMK AO2 SLP240 T01060039

More Conditions Fewer Conditions

10-Day Weather Forecast

Almanac

Astronomy

Dec. 25, 2014 Rise Set
Actual Time
Civil Twilight
Nautical Twilight
Astronomical Twilight
Moon
Length of Visible Light
Length of Day
Tomorrow will be .
, % of the Moon is Illuminated

Today's Extremes

State Highs State Lows

Community

WunderPhotos

Upload Photos

1,780,436 photos uploaded!

WunderBlogs® & News

Nearby

Air Quality

  Air Quality AQ Index Pollutant
Not available.

Snow Depth

Station Depth Elevation

Earthquake Activity

City Distance Mag. Time & Date
Minimum magnitude displayed is 2.5.

Coastal Water Temperatures

Place Temperature

Nearby Weather Stations